Parks, AZ (86018)

12:09 PM MST on August 29, 2015 (GMT -0700)
MesoWest | | Change Station
CLOSE
Current Station
Personal Weather Station
Location: Bellemont, AZ
Elevation: 7290 ft
Nearby Weather Stations

Elev 7290 ft 35.20 °N, 111.74 °W | Updated 36 minutes ago

Partly Cloudy
Partly Cloudy
77 °F
Feels Like 77 °F
N
1
Wind Variable Wind from South
Gusts 7.0 mph

Today
High -- | Low -- °F
--% Chance of Precip.
Yesterday
High -- | Low -- °F
Precip. -- in
5:57 AM 6:58 PM
Full, 100% visible
Pressure 30.38 in
Visibility 10.0 miles
Clouds Few 9000 ft
Mostly Cloudy 12000 ft
Heat Index 77 °F
Dew Point 39 °F
Humidity 26%
Rainfall in
Snow Depth Not available.
UV 6 out of 12
Pollen 5.30 out of 12
Air Quality Not available.
Flu Activity Not available.
METAR KCMR 291855Z AUTO 16004KT 10SM FEW090 BKN120 27/05 A3038 RMK AO2
Pressure 30.38 in
Visibility 10.0 miles
Clouds Few 9000 ft
Mostly Cloudy 12000 ft
Heat Index 77 °F
Dew Point 39 °F
Humidity 26%
Rainfall in
Snow Depth Not available.
UV 6 out of 12
Pollen 5.30 out of 12
Air Quality Not available.
Flu Activity Not available.
METAR KCMR 291855Z AUTO 16004KT 10SM FEW090 BKN120 27/05 A3038 RMK AO2

10-Day Weather Forecast

×

Almanac

Astronomy

Aug. 29, 2015 Rise Set
Actual Time
Civil Twilight
Nautical Twilight
Astronomical Twilight
Moon
Length of Visible Light
Length of Day
Tomorrow will be .
, % of the Moon is Illuminated

Today's Extremes

State Highs State Lows

Community

WunderPhotos

Upload Photos

1,850,777 photos uploaded!

WunderBlogs® & News

Nearby

Air Quality

  Air Quality AQ Index Pollutant
Not available.

Snow Depth

Station Depth Elevation

Earthquake Activity

City Distance Mag. Time & Date
Minimum magnitude displayed is 2.5.

Coastal Water Temperatures

Place Temperature

Stations

Nearby Weather Stations

Station Location Temp. Windchill Dew Point Humidity Wind Precip. Elev Updated Type